Time;durP1;ratioP1;P1;durP2;ratioP2;P2;SDS_P1;SDS_P2;PMS_P1;PMS_P2;Temp;Humidity;BMP_temperature;BMP_pressure;BME280_temperature;BME280_humidity;BME280_pressure;Samples;Min_cycle;Max_cycle;Signal;HPM_P1;HPM_P2
2021/12/15 00:01:27;;;;;;;8.32;5.03;;;;;;;;;;4859458;29;20033;-66
2021/12/15 00:03:53;;;;;;;5.10;3.58;;;;;;;;;;4860657;29;20046;-67
2021/12/15 00:06:19;;;;;;;7.60;5.25;;;;;;;;;;4860684;29;20053;-66
2021/12/15 00:08:48;;;;;;;10.93;6.13;;;;;;;;;;4860665;29;20485;-66
2021/12/15 00:11:16;;;;;;;6.22;4.43;;;;;;;;;;4860156;29;20045;-68
2021/12/15 00:13:44;;;;;;;9.57;5.28;;;;;;;;;;4858907;29;20062;-67
2021/12/15 00:16:11;;;;;;;8.80;5.00;;;;;;;;;;4857352;29;20034;-67
2021/12/15 00:18:41;;;;;;;7.70;5.05;;;;;;;;;;4842290;29;20026;-66
2021/12/15 00:21:10;;;;;;;7.20;4.70;;;;;;;;;;4842005;29;20058;-66
2021/12/15 00:23:37;;;;;;;7.47;4.60;;;;;;;;;;4842250;29;20022;-65
2021/12/15 00:26:03;;;;;;;8.65;5.30;;;;;;;;;;4848644;29;20037;-65
2021/12/15 00:28:29;;;;;;;6.65;4.38;;;;;;;;;;4860426;29;20056;-64
2021/12/15 00:30:57;;;;;;;7.60;4.50;;;;;;;;;;4860170;29;20041;-65
2021/12/15 00:33:23;;;;;;;6.18;3.90;;;;;;;;;;4860150;29;20037;-64
2021/12/15 00:35:49;;;;;;;5.78;3.60;;;;;;;;;;4860121;29;20038;-63
2021/12/15 00:38:14;;;;;;;6.90;3.60;;;;;;;;;;4860063;29;20033;-65
2021/12/15 00:40:41;;;;;;;6.82;3.22;;;;;;;;;;4860248;29;20124;-66
2021/12/15 00:43:07;;;;;;;5.10;3.38;;;;;;;;;;4859998;29;20029;-65
2021/12/15 00:45:33;;;;;;;7.35;3.50;;;;;;;;;;4873974;29;20043;-65
2021/12/15 00:47:59;;;;;;;6.68;3.28;;;;;;;;;;4860194;29;20068;-65
2021/12/15 00:50:28;;;;;;;6.30;3.30;;;;;;;;;;4859136;29;20518;-65
2021/12/15 00:52:54;;;;;;;9.77;5.95;;;;;;;;;;4855330;29;20097;-66
2021/12/15 00:55:26;;;;;;;6.10;3.45;;;;;;;;;;4872106;29;20679;-65
2021/12/15 00:57:52;;;;;;;5.43;2.70;;;;;;;;;;4858720;29;20116;-64
2021/12/15 01:00:26;;;;;;;7.72;3.15;;;;;;;;;;4858642;29;20121;-65
2021/12/15 01:02:53;;;;;;;4.68;2.90;;;;;;;;;;4841021;29;20042;-64
2021/12/15 01:05:23;;;;;;;5.35;3.40;;;;;;;;;;4841325;29;20071;-64
2021/12/15 01:07:49;;;;;;;5.40;3.72;;;;;;;;;;4842119;29;20045;-65
2021/12/15 01:10:23;;;;;;;7.75;4.25;;;;;;;;;;4840705;29;20470;-65
2021/12/15 01:14:30;;;;;;;;;;;;;;;;;;4842169;29;20086;-65
2021/12/15 01:21:15;;;;;;;9.15;5.32;;;;;;;;;;4859152;29;20037;-65
2021/12/15 01:23:42;;;;;;;7.57;5.43;;;;;;;;;;4860499;29;20033;-66
2021/12/15 01:26:13;;;;;;;8.52;5.47;;;;;;;;;;4859275;29;20053;-65
2021/12/15 01:28:39;;;;;;;8.93;5.82;;;;;;;;;;4860215;29;20037;-66
2021/12/15 01:31:07;;;;;;;8.20;5.05;;;;;;;;;;4860041;29;20104;-65
2021/12/15 01:33:35;;;;;;;8.70;5.25;;;;;;;;;;4859232;29;20371;-64
2021/12/15 01:36:04;;;;;;;6.75;4.72;;;;;;;;;;4859010;29;20030;-65
2021/12/15 01:38:33;;;;;;;8.60;5.15;;;;;;;;;;4859220;29;20041;-65
2021/12/15 01:41:00;;;;;;;8.43;5.35;;;;;;;;;;4860091;29;20025;-64
2021/12/15 01:43:49;;;;;;;7.53;4.72;;;;;;;;;;4859956;29;20098;-65
2021/12/15 01:49:14;;;;;;;5.93;4.55;;;;;;;;;;4859082;29;20049;-67
2021/12/15 01:51:42;;;;;;;6.72;4.72;;;;;;;;;;4850333;29;20025;-65
2021/12/15 01:54:09;;;;;;;7.00;4.57;;;;;;;;;;4859628;29;20025;-65
2021/12/15 01:56:35;;;;;;;8.70;4.97;;;;;;;;;;4858830;29;20037;-65
2021/12/15 01:59:01;;;;;;;8.60;4.88;;;;;;;;;;4858344;29;20109;-64
2021/12/15 02:01:27;;;;;;;7.35;5.05;;;;;;;;;;4858589;29;20030;-64
2021/12/15 02:03:54;;;;;;;8.10;5.28;;;;;;;;;;4859305;29;20092;-64
2021/12/15 02:06:20;;;;;;;8.20;4.85;;;;;;;;;;4859676;29;20053;-66
2021/12/15 02:08:48;;;;;;;8.18;5.22;;;;;;;;;;4859779;29;20475;-66
2021/12/15 02:11:14;;;;;;;7.13;5.05;;;;;;;;;;4859709;29;20085;-65
2021/12/15 02:13:39;;;;;;;7.05;4.85;;;;;;;;;;4859738;29;20038;-65
2021/12/15 02:16:07;;;;;;;7.57;4.72;;;;;;;;;;4859843;29;20911;-67
2021/12/15 02:18:37;;;;;;;7.00;5.00;;;;;;;;;;4858332;29;20029;-71
2021/12/15 02:21:11;;;;;;;7.32;5.40;;;;;;;;;;4858391;29;20042;-66
2021/12/15 02:23:43;;;;;;;7.95;4.68;;;;;;;;;;4859688;29;20128;-72
2021/12/15 02:26:16;;;;;;;7.40;5.30;;;;;;;;;;4858014;29;20454;-69
2021/12/15 02:28:48;;;;;;;6.30;4.32;;;;;;;;;;4859479;29;20041;-70
2021/12/15 02:34:43;;;;;;;7.22;4.95;;;;;;;;;;4859518;29;20129;-66
2021/12/15 02:37:17;;;;;;;6.97;4.78;;;;;;;;;;4858883;29;20036;-67
2021/12/15 02:40:06;;;;;;;13.70;4.97;;;;;;;;;;4857821;29;20397;-68
2021/12/15 02:42:35;;;;;;;7.45;4.55;;;;;;;;;;4859332;29;20044;-70
2021/12/15 02:45:07;;;;;;;6.78;5.03;;;;;;;;;;4859112;29;20086;-73
2021/12/15 02:47:33;;;;;;;7.90;4.93;;;;;;;;;;4859394;29;20387;-74
2021/12/15 02:50:00;;;;;;;8.07;5.57;;;;;;;;;;4861966;29;20053;-72
2021/12/15 02:52:27;;;;;;;7.40;4.93;;;;;;;;;;4862973;29;20319;-74
2021/12/15 02:54:53;;;;;;;7.38;5.10;;;;;;;;;;4862936;29;20036;-71
2021/12/15 02:57:20;;;;;;;7.00;4.85;;;;;;;;;;4862820;29;20038;-71
2021/12/15 03:05:23;;;;;;;7.53;5.25;;;;;;;;;;4862655;29;20050;-73
2021/12/15 03:08:50;;;;;;;9.75;4.38;;;;;;;;;;4862216;29;20037;-73
2021/12/15 03:16:13;;;;;;;7.75;5.00;;;;;;;;;;4843800;29;20042;-73
2021/12/15 03:18:39;;;;;;;8.68;4.80;;;;;;;;;;4843849;29;20529;-72
2021/12/15 03:21:15;;;;;;;6.47;4.55;;;;;;;;;;4843799;29;20406;-72
2021/12/15 03:23:54;;;;;;;10.80;5.20;;;;;;;;;;4846356;29;20037;-70
2021/12/15 03:26:24;;;;;;;6.97;4.78;;;;;;;;;;4843578;29;20038;-71
2021/12/15 03:37:08;;;;;;;11.15;5.53;;;;;;;;;;4843330;29;20080;-72
2021/12/15 03:39:42;;;;;;;8.27;5.10;;;;;;;;;;4843321;29;20383;-71
2021/12/15 03:42:10;;;;;;;7.28;5.00;;;;;;;;;;4843676;29;20489;-69
2021/12/15 03:44:41;;;;;;;8.32;4.97;;;;;;;;;;4843675;29;20033;-72
2021/12/15 03:47:12;;;;;;;5.22;4.03;;;;;;;;;;4842232;29;20411;-72
2021/12/15 03:49:39;;;;;;;10.07;4.38;;;;;;;;;;4843303;29;20125;-67
2021/12/15 03:52:06;;;;;;;7.65;4.90;;;;;;;;;;4843975;29;20030;-73
2021/12/15 03:54:32;;;;;;;7.40;4.82;;;;;;;;;;4842999;29;20120;-68
2021/12/15 03:56:58;;;;;;;7.45;4.82;;;;;;;;;;4843212;29;20117;-73
2021/12/15 03:59:25;;;;;;;6.95;4.93;;;;;;;;;;4851066;29;20041;-68
2021/12/15 04:01:51;;;;;;;9.52;4.85;;;;;;;;;;4842063;29;20030;-73
2021/12/15 04:04:17;;;;;;;8.50;5.15;;;;;;;;;;4843146;29;20061;-68
2021/12/15 04:06:44;;;;;;;10.57;4.57;;;;;;;;;;4842969;29;20038;-70
2021/12/15 04:09:13;;;;;;;6.63;4.30;;;;;;;;;;4842834;29;20050;-71
2021/12/15 04:11:40;;;;;;;7.25;4.57;;;;;;;;;;4843271;29;20026;-70
2021/12/15 04:14:11;;;;;;;6.47;4.75;;;;;;;;;;4842930;29;20405;-69
2021/12/15 04:19:11;;;;;;;6.75;4.75;;;;;;;;;;4861626;29;20457;-67
2021/12/15 04:21:38;;;;;;;6.90;4.85;;;;;;;;;;4861034;29;20097;-64
2021/12/15 04:24:05;;;;;;;8.60;4.93;;;;;;;;;;4860716;29;20029;-70
2021/12/15 04:26:32;;;;;;;8.27;5.07;;;;;;;;;;4860226;29;20085;-67
2021/12/15 04:28:58;;;;;;;6.82;4.55;;;;;;;;;;4842474;29;20037;-65
2021/12/15 04:31:29;;;;;;;11.00;4.57;;;;;;;;;;4842633;29;20042;-65
2021/12/15 04:34:01;;;;;;;6.50;4.43;;;;;;;;;;4842682;29;20090;-71
2021/12/15 04:36:31;;;;;;;7.85;4.63;;;;;;;;;;4842736;29;20124;-66
2021/12/15 04:38:58;;;;;;;8.55;4.78;;;;;;;;;;4842305;29;20033;-68
2021/12/15 04:41:25;;;;;;;8.38;5.10;;;;;;;;;;4842318;29;20054;-72
2021/12/15 04:44:00;;;;;;;8.25;4.63;;;;;;;;;;4844839;29;20036;-74
2021/12/15 04:46:30;;;;;;;7.75;5.43;;;;;;;;;;4855643;29;20457;-70
2021/12/15 04:48:56;;;;;;;7.97;4.68;;;;;;;;;;4825664;29;20534;-71
2021/12/15 04:51:23;;;;;;;9.32;5.82;;;;;;;;;;4842060;29;20045;-70
2021/12/15 04:53:52;;;;;;;7.07;5.00;;;;;;;;;;4845076;29;20374;-68
2021/12/15 04:56:19;;;;;;;9.70;5.43;;;;;;;;;;4860659;29;20034;-66
2021/12/15 04:58:46;;;;;;;9.63;5.15;;;;;;;;;;4860311;29;20504;-66
2021/12/15 05:01:13;;;;;;;9.13;5.15;;;;;;;;;;4859264;29;20029;-66
2021/12/15 05:03:39;;;;;;;9.25;5.65;;;;;;;;;;4858893;29;20047;-66
2021/12/15 05:06:07;;;;;;;10.07;6.40;;;;;;;;;;4860044;29;20041;-65
2021/12/15 05:08:33;;;;;;;10.00;5.60;;;;;;;;;;4859956;29;20077;-65
2021/12/15 05:11:00;;;;;;;11.55;5.80;;;;;;;;;;4859767;29;20136;-66
2021/12/15 05:13:27;;;;;;;12.52;6.05;;;;;;;;;;4859864;29;20081;-67
2021/12/15 05:15:54;;;;;;;9.23;5.72;;;;;;;;;;4856097;29;20497;-67
2021/12/15 05:18:20;;;;;;;12.45;5.95;;;;;;;;;;4852386;29;20119;-65
2021/12/15 05:20:49;;;;;;;12.30;5.90;;;;;;;;;;4859169;29;20042;-70
2021/12/15 05:23:16;;;;;;;7.93;5.50;;;;;;;;;;4859811;29;20150;-71
2021/12/15 05:25:42;;;;;;;8.18;5.32;;;;;;;;;;4859817;29;20055;-71
2021/12/15 05:28:08;;;;;;;11.43;5.50;;;;;;;;;;4859565;29;20025;-70
2021/12/15 05:30:35;;;;;;;10.15;6.10;;;;;;;;;;4859724;29;20165;-70
2021/12/15 05:33:01;;;;;;;10.20;6.68;;;;;;;;;;4859301;29;20036;-70
2021/12/15 05:35:27;;;;;;;12.20;6.32;;;;;;;;;;4859661;29;20497;-72
2021/12/15 05:37:58;;;;;;;15.57;8.30;;;;;;;;;;4859648;29;20036;-69
2021/12/15 05:40:26;;;;;;;18.00;8.63;;;;;;;;;;4848351;29;20029;-73
2021/12/15 05:42:56;;;;;;;14.90;8.13;;;;;;;;;;4857295;29;20054;-70
2021/12/15 05:45:23;;;;;;;20.20;7.30;;;;;;;;;;4858761;29;20169;-72
2021/12/15 05:47:49;;;;;;;14.00;7.03;;;;;;;;;;4858495;29;20481;-72
2021/12/15 05:50:15;;;;;;;13.57;7.13;;;;;;;;;;4840261;29;20042;-71
2021/12/15 05:52:42;;;;;;;14.48;6.78;;;;;;;;;;4840310;29;20540;-71
2021/12/15 05:55:12;;;;;;;14.70;7.38;;;;;;;;;;4840095;29;20489;-70
2021/12/15 05:57:38;;;;;;;11.48;7.22;;;;;;;;;;4840598;29;20038;-70
2021/12/15 06:00:23;;;;;;;13.15;7.68;;;;;;;;;;4838841;29;20470;-70
2021/12/15 06:02:49;;;;;;;14.38;8.23;;;;;;;;;;4839378;29;20509;-70
2021/12/15 06:05:15;;;;;;;11.73;7.60;;;;;;;;;;4838897;29;20174;-72
2021/12/15 06:07:41;;;;;;;12.68;7.70;;;;;;;;;;4840173;29;20121;-73
2021/12/15 06:10:10;;;;;;;12.27;6.90;;;;;;;;;;4837786;29;20034;-75
2021/12/15 06:12:36;;;;;;;26.60;8.75;;;;;;;;;;4838606;29;20064;-70
2021/12/15 06:15:03;;;;;;;18.33;8.43;;;;;;;;;;4840191;29;20105;-74
2021/12/15 06:17:29;;;;;;;23.27;9.30;;;;;;;;;;4840138;29;20035;-75
2021/12/15 06:19:56;;;;;;;25.23;9.60;;;;;;;;;;4839233;29;20034;-74
2021/12/15 06:22:28;;;;;;;22.48;10.95;;;;;;;;;;4835391;29;20139;-71
2021/12/15 06:24:55;;;;;;;29.75;10.85;;;;;;;;;;4839820;29;20114;-78
2021/12/15 06:27:23;;;;;;;20.50;9.82;;;;;;;;;;4843257;29;20030;-75
2021/12/15 06:29:52;;;;;;;19.42;9.25;;;;;;;;;;4844552;29;20045;-73
2021/12/15 06:32:19;;;;;;;18.65;9.13;;;;;;;;;;4845134;29;20028;-76
2021/12/15 06:34:45;;;;;;;15.65;8.85;;;;;;;;;;4846099;29;20461;-76
2021/12/15 06:37:12;;;;;;;27.67;9.93;;;;;;;;;;4845467;29;20051;-75
2021/12/15 06:39:38;;;;;;;18.38;9.77;;;;;;;;;;4845552;29;20109;-70
2021/12/15 06:42:05;;;;;;;24.25;11.48;;;;;;;;;;4844315;29;20036;-70
2021/12/15 06:44:31;;;;;;;15.52;8.48;;;;;;;;;;4860208;29;20381;-71
2021/12/15 07:00:25;;;;;;;13.07;8.13;;;;;;;;;;4863035;29;20401;-72
2021/12/15 07:02:52;;;;;;;13.95;7.30;;;;;;;;;;4863181;29;20053;-73
2021/12/15 07:05:18;;;;;;;17.92;8.05;;;;;;;;;;4862874;29;20123;-72
2021/12/15 07:07:47;;;;;;;12.43;7.70;;;;;;;;;;4863088;29;20107;-72
2021/12/15 07:10:21;;;;;;;25.35;8.15;;;;;;;;;;4862992;29;20041;-73
2021/12/15 07:12:48;;;;;;;15.25;7.15;;;;;;;;;;4862738;29;20041;-70
2021/12/15 07:15:14;;;;;;;13.00;8.15;;;;;;;;;;4862668;29;20033;-69
2021/12/15 07:17:40;;;;;;;17.90;8.60;;;;;;;;;;4862719;29;20097;-70
2021/12/15 07:22:54;;;;;;;19.08;10.05;;;;;;;;;;4862467;29;20038;-70
2021/12/15 07:25:21;;;;;;;20.27;9.30;;;;;;;;;;4862439;29;20116;-70
2021/12/15 07:27:48;;;;;;;22.85;10.50;;;;;;;;;;4862586;29;20033;-69
2021/12/15 07:30:15;;;;;;;22.05;10.55;;;;;;;;;;4861993;29;20075;-74
2021/12/15 07:32:41;;;;;;;20.60;9.73;;;;;;;;;;4862505;29;20552;-73
2021/12/15 07:35:09;;;;;;;15.57;8.55;;;;;;;;;;4863041;29;20112;-70
2021/12/15 07:37:35;;;;;;;17.98;9.15;;;;;;;;;;4862212;29;20054;-70
2021/12/15 07:40:06;;;;;;;17.52;8.93;;;;;;;;;;4862368;29;20113;-70
2021/12/15 07:42:42;;;;;;;15.77;8.43;;;;;;;;;;4859982;29;20062;-69
2021/12/15 07:45:10;;;;;;;17.58;8.45;;;;;;;;;;4842181;29;20514;-69
2021/12/15 07:47:37;;;;;;;16.85;9.43;;;;;;;;;;4843197;29;20102;-71
2021/12/15 07:50:05;;;;;;;18.52;8.57;;;;;;;;;;4842304;29;20044;-70
2021/12/15 07:52:31;;;;;;;16.83;8.18;;;;;;;;;;4843007;29;20033;-69
2021/12/15 07:54:57;;;;;;;13.27;7.82;;;;;;;;;;4843052;29;20038;-69
2021/12/15 07:57:27;;;;;;;15.10;8.48;;;;;;;;;;4842670;29;20026;-73
2021/12/15 07:59:56;;;;;;;23.30;9.13;;;;;;;;;;4842638;29;20070;-69
2021/12/15 08:06:03;;;;;;;16.15;8.70;;;;;;;;;;4842671;29;20453;-71
2021/12/15 08:08:29;;;;;;;24.50;10.02;;;;;;;;;;4842543;29;20060;-70
2021/12/15 08:10:57;;;;;;;18.90;9.55;;;;;;;;;;4842773;29;20443;-70
2021/12/15 08:13:26;;;;;;;15.10;8.10;;;;;;;;;;4841069;29;20124;-69
2021/12/15 08:15:52;;;;;;;10.77;7.28;;;;;;;;;;4842127;29;20105;-70
2021/12/15 08:18:18;;;;;;;18.90;8.55;;;;;;;;;;4842236;29;20057;-70
2021/12/15 08:20:45;;;;;;;12.73;8.00;;;;;;;;;;4841845;29;20113;-71
2021/12/15 08:23:11;;;;;;;14.52;8.13;;;;;;;;;;4841949;29;20033;-70
2021/12/15 08:25:38;;;;;;;20.88;8.18;;;;;;;;;;4841560;29;20113;-72
2021/12/15 08:28:05;;;;;;;17.30;8.95;;;;;;;;;;4842417;29;20057;-69
2021/12/15 08:30:33;;;;;;;14.40;7.63;;;;;;;;;;4842746;29;20030;-71
2021/12/15 08:33:02;;;;;;;15.70;9.10;;;;;;;;;;4842742;29;20037;-70
2021/12/15 08:35:34;;;;;;;18.02;11.02;;;;;;;;;;4842488;29;20029;-70
2021/12/15 08:38:00;;;;;;;17.33;9.90;;;;;;;;;;4851966;29;20049;-68
2021/12/15 08:40:27;;;;;;;19.83;11.82;;;;;;;;;;4861484;29;20437;-68
2021/12/15 08:42:55;;;;;;;16.10;9.63;;;;;;;;;;4860915;29;20578;-69
2021/12/15 08:45:21;;;;;;;15.30;9.60;;;;;;;;;;4861514;29;20179;-69
2021/12/15 08:47:47;;;;;;;19.55;11.95;;;;;;;;;;4860544;29;20034;-70
2021/12/15 08:50:17;;;;;;;22.98;10.98;;;;;;;;;;4860761;29;20374;-75
2021/12/15 08:52:43;;;;;;;13.15;8.45;;;;;;;;;;4861161;29;20040;-75
2021/12/15 08:55:10;;;;;;;13.88;9.27;;;;;;;;;;4860665;29;20081;-73
2021/12/15 08:57:36;;;;;;;16.75;8.45;;;;;;;;;;4860816;29;20092;-69
2021/12/15 09:00:08;;;;;;;10.35;7.60;;;;;;;;;;4860774;29;20090;-72
2021/12/15 09:02:35;;;;;;;13.50;7.72;;;;;;;;;;4860179;29;20374;-69
2021/12/15 09:05:02;;;;;;;12.30;7.47;;;;;;;;;;4860035;29;20042;-68
2021/12/15 09:07:28;;;;;;;11.55;6.38;;;;;;;;;;4860023;29;20396;-69
2021/12/15 09:09:55;;;;;;;16.80;7.03;;;;;;;;;;4860055;29;20030;-75
2021/12/15 09:12:21;;;;;;;14.75;7.72;;;;;;;;;;4860126;29;20048;-70
2021/12/15 09:14:47;;;;;;;10.25;6.80;;;;;;;;;;4860591;29;20108;-70
2021/12/15 09:17:13;;;;;;;8.85;5.38;;;;;;;;;;4860218;29;20052;-75
2021/12/15 09:19:39;;;;;;;8.55;5.50;;;;;;;;;;4859682;29;20120;-68
2021/12/15 09:22:05;;;;;;;11.57;6.03;;;;;;;;;;4860009;29;20037;-73
2021/12/15 09:24:32;;;;;;;9.27;5.97;;;;;;;;;;4860145;29;20025;-69
2021/12/15 09:26:58;;;;;;;9.15;5.72;;;;;;;;;;4859434;29;20045;-71
2021/12/15 09:29:24;;;;;;;9.52;6.63;;;;;;;;;;4859755;29;20034;-72
2021/12/15 09:31:50;;;;;;;15.00;5.82;;;;;;;;;;4860055;29;20053;-68
2021/12/15 09:34:18;;;;;;;10.20;6.55;;;;;;;;;;4859848;29;20078;-70
2021/12/15 09:36:46;;;;;;;8.82;6.32;;;;;;;;;;4860156;29;20068;-71
2021/12/15 09:39:15;;;;;;;14.68;6.20;;;;;;;;;;4860177;29;20040;-73
2021/12/15 09:41:42;;;;;;;11.18;6.25;;;;;;;;;;4859771;29;20038;-70
2021/12/15 09:44:12;;;;;;;8.82;5.80;;;;;;;;;;4859793;29;20025;-74
2021/12/15 09:47:06;;;;;;;9.35;6.55;;;;;;;;;;4858155;29;20114;-71
2021/12/15 10:03:06;;;;;;;8.90;6.32;;;;;;;;;;4859564;29;20105;-69
2021/12/15 10:11:15;;;;;;;9.35;5.32;;;;;;;;;;4859411;29;20029;-69
2021/12/15 10:19:32;;;;;;;7.97;4.85;;;;;;;;;;4859278;29;20041;-71
2021/12/15 10:22:10;;;;;;;8.95;4.95;;;;;;;;;;4859658;29;20049;-71
2021/12/15 10:24:48;;;;;;;7.30;5.15;;;;;;;;;;4859628;29;20065;-70
2021/12/15 10:27:30;;;;;;;9.50;5.38;;;;;;;;;;4858979;29;20042;-70
2021/12/15 10:30:09;;;;;;;8.75;4.97;;;;;;;;;;4839574;29;20034;-70
2021/12/15 10:32:38;;;;;;;8.00;5.53;;;;;;;;;;4840117;29;20113;-70
2021/12/15 10:35:21;;;;;;;6.65;5.00;;;;;;;;;;4840948;29;20428;-70
2021/12/15 10:38:08;;;;;;;6.97;4.63;;;;;;;;;;4841233;29;20398;-70
2021/12/15 10:40:45;;;;;;;8.65;5.18;;;;;;;;;;4839946;29;20058;-72
2021/12/15 10:43:11;;;;;;;13.85;5.55;;;;;;;;;;4841104;29;20401;-73
2021/12/15 10:45:41;;;;;;;8.52;4.65;;;;;;;;;;4840844;29;20029;-72
2021/12/15 10:48:14;;;;;;;9.02;5.07;;;;;;;;;;4852049;29;20148;-74
2021/12/15 10:50:41;;;;;;;6.47;4.15;;;;;;;;;;4858935;29;20482;-70
2021/12/15 10:53:07;;;;;;;8.23;4.80;;;;;;;;;;4859318;29;20057;-71
2021/12/15 10:55:38;;;;;;;6.60;4.47;;;;;;;;;;4859370;29;20477;-72
2021/12/15 10:58:34;;;;;;;6.28;3.90;;;;;;;;;;4859096;29;20040;-74
2021/12/15 11:01:02;;;;;;;7.78;4.65;;;;;;;;;;4859203;29;20041;-71
2021/12/15 11:03:37;;;;;;;5.72;3.92;;;;;;;;;;4859167;29;20462;-71
2021/12/15 11:06:27;;;;;;;6.07;4.15;;;;;;;;;;4859063;29;20068;-75
2021/12/15 11:09:17;;;;;;;8.07;4.10;;;;;;;;;;4858680;29;20041;-70
2021/12/15 11:12:01;;;;;;;7.57;4.82;;;;;;;;;;4862661;29;20038;-77
2021/12/15 11:14:31;;;;;;;7.05;4.22;;;;;;;;;;4862568;29;20595;-70
2021/12/15 11:17:26;;;;;;;7.57;4.35;;;;;;;;;;4862434;29;20057;-71
2021/12/15 11:20:08;;;;;;;14.65;5.35;;;;;;;;;;4862459;29;20094;-71
2021/12/15 11:22:55;;;;;;;9.02;5.30;;;;;;;;;;4862425;29;20127;-71
2021/12/15 11:25:41;;;;;;;10.75;5.18;;;;;;;;;;4862413;29;20560;-71
2021/12/15 11:28:12;;;;;;;11.88;5.30;;;;;;;;;;4862457;29;20089;-71
2021/12/15 11:31:06;;;;;;;12.10;5.35;;;;;;;;;;4862672;29;20033;-73
2021/12/15 11:33:45;;;;;;;;;;;;;;;;;;4861417;29;20034;-74
2021/12/15 11:36:15;;;;;;;13.30;5.43;;;;;;;;;;4860525;29;19967;-70
2021/12/15 11:38:49;;;;;;;14.88;5.72;;;;;;;;;;4861185;29;20030;-70
2021/12/15 11:41:22;;;;;;;11.20;5.53;;;;;;;;;;4861739;29;20045;-70
2021/12/15 11:44:00;;;;;;;13.32;6.07;;;;;;;;;;4862197;29;20473;-78
2021/12/15 11:46:37;;;;;;;10.13;4.70;;;;;;;;;;4861739;29;20046;-70
2021/12/15 11:49:13;;;;;;;9.23;5.43;;;;;;;;;;4863399;29;20389;-71
2021/12/15 11:51:49;;;;;;;11.30;4.40;;;;;;;;;;4862252;29;20033;-75
2021/12/15 11:54:42;;;;;;;10.07;4.60;;;;;;;;;;4861408;29;20034;-71
2021/12/15 11:57:23;;;;;;;9.80;4.80;;;;;;;;;;4854584;29;20081;-70
2021/12/15 11:59:54;;;;;;;7.65;4.93;;;;;;;;;;4861409;29;20389;-73
2021/12/15 12:02:24;;;;;;;9.70;5.38;;;;;;;;;;4860930;29;20053;-77
2021/12/15 12:04:52;;;;;;;11.32;5.85;;;;;;;;;;4862062;29;20045;-70
2021/12/15 12:07:29;;;;;;;9.80;5.22;;;;;;;;;;4861679;29;20485;-71
2021/12/15 12:10:00;;;;;;;9.75;5.03;;;;;;;;;;4861690;29;20113;-75
2021/12/15 12:12:34;;;;;;;9.85;5.80;;;;;;;;;;4861259;29;20041;-78
2021/12/15 12:15:00;;;;;;;;;;;;;;;;;;4853708;29;20041;-68
2021/12/15 12:17:33;;;;;;;9.77;5.88;;;;;;;;;;4842037;29;19916;-73
2021/12/15 12:20:12;;;;;;;8.85;4.53;;;;;;;;;;4842033;29;20037;-72
2021/12/15 12:22:40;;;;;;;6.60;3.92;;;;;;;;;;4843267;29;20041;-69
2021/12/15 12:25:14;;;;;;;7.90;4.40;;;;;;;;;;4860434;29;20034;-75
2021/12/15 12:27:40;;;;;;;16.20;4.53;;;;;;;;;;4844736;29;20197;-78
2021/12/15 12:30:18;;;;;;;8.15;4.15;;;;;;;;;;4841779;29;20030;-72
2021/12/15 12:32:45;;;;;;;7.72;3.85;;;;;;;;;;4857317;29;20048;-73
2021/12/15 12:35:15;;;;;;;7.07;4.50;;;;;;;;;;4855210;29;20089;-74
2021/12/15 12:37:41;;;;;;;9.65;4.93;;;;;;;;;;4858782;29;20114;-73
2021/12/15 12:40:46;;;;;;;10.23;4.78;;;;;;;;;;4857885;29;20197;-72
2021/12/15 12:43:23;;;;;;;10.00;5.32;;;;;;;;;;4853575;29;20073;-71
2021/12/15 12:46:06;;;;;;;10.50;6.57;;;;;;;;;;4859466;29;20042;-71
2021/12/15 12:48:49;;;;;;;15.50;6.35;;;;;;;;;;4851743;29;20037;-74
2021/12/15 12:59:47;;;;;;;9.95;5.57;;;;;;;;;;4847472;29;20489;-71
2021/12/15 13:05:06;;;;;;;7.60;5.30;;;;;;;;;;4848060;29;20046;-70
2021/12/15 13:07:49;;;;;;;10.07;5.95;;;;;;;;;;4851264;29;20065;-72
2021/12/15 13:10:17;;;;;;;7.70;5.25;;;;;;;;;;4853124;29;20433;-72
2021/12/15 13:12:47;;;;;;;10.77;5.82;;;;;;;;;;4845316;29;20120;-72
2021/12/15 13:15:23;;;;;;;12.75;7.43;;;;;;;;;;4851623;29;20030;-70
2021/12/15 13:18:03;;;;;;;9.60;5.93;;;;;;;;;;4859517;29;20033;-72
2021/12/15 13:20:34;;;;;;;10.57;5.97;;;;;;;;;;4846614;29;20450;-74
2021/12/15 13:31:25;;;;;;;9.90;5.00;;;;;;;;;;4840319;29;20382;-70
2021/12/15 13:34:01;;;;;;;7.18;4.32;;;;;;;;;;4848515;29;20177;-74
2021/12/15 13:36:37;;;;;;;9.43;5.00;;;;;;;;;;4854309;29;20140;-72
2021/12/15 13:39:10;;;;;;;6.70;4.75;;;;;;;;;;4857305;29;20038;-68
2021/12/15 13:42:00;;;;;;;14.05;5.57;;;;;;;;;;4858192;29;20125;-70
2021/12/15 13:44:45;;;;;;;14.40;7.68;;;;;;;;;;4857827;29;20109;-71
2021/12/15 13:47:13;;;;;;;10.68;5.43;;;;;;;;;;4859332;29;20116;-71
2021/12/15 13:49:53;;;;;;;7.13;4.57;;;;;;;;;;4859170;29;20042;-71
2021/12/15 13:52:42;;;;;;;9.02;5.10;;;;;;;;;;4847849;29;20046;-71
2021/12/15 13:55:30;;;;;;;8.30;5.07;;;;;;;;;;4840938;29;20048;-72
2021/12/15 13:57:58;;;;;;;6.50;4.45;;;;;;;;;;4840316;29;20030;-72
2021/12/15 14:00:36;;;;;;;7.85;4.93;;;;;;;;;;4840863;29;20021;-71
2021/12/15 14:03:10;;;;;;;9.52;5.43;;;;;;;;;;4840591;29;20081;-72
2021/12/15 14:05:42;;;;;;;12.90;5.50;;;;;;;;;;4839555;29;20033;-70
2021/12/15 14:08:12;;;;;;;8.25;4.78;;;;;;;;;;4850942;29;20037;-71
2021/12/15 14:10:49;;;;;;;10.13;5.38;;;;;;;;;;4858891;29;20118;-70
2021/12/15 14:13:16;;;;;;;9.23;5.75;;;;;;;;;;4858921;29;20060;-75
2021/12/15 14:15:44;;;;;;;11.23;6.45;;;;;;;;;;4859375;29;20141;-72
2021/12/15 14:18:16;;;;;;;9.80;5.40;;;;;;;;;;4859068;29;20037;-71
2021/12/15 14:20:44;;;;;;;36.53;15.55;;;;;;;;;;4858722;29;20034;-72
2021/12/15 14:23:14;;;;;;;8.50;6.40;;;;;;;;;;4859092;29;20409;-71
2021/12/15 14:25:43;;;;;;;19.92;8.23;;;;;;;;;;4857713;29;20140;-71
2021/12/15 14:28:13;;;;;;;11.40;7.15;;;;;;;;;;4858614;29;20030;-69
2021/12/15 14:30:41;;;;;;;16.50;6.90;;;;;;;;;;4858496;29;20097;-68
2021/12/15 14:33:25;;;;;;;21.60;8.20;;;;;;;;;;4858721;29;20081;-69
2021/12/15 14:35:53;;;;;;;14.90;7.90;;;;;;;;;;4859043;29;20045;-70
2021/12/15 14:38:34;;;;;;;10.45;6.60;;;;;;;;;;4858934;29;20229;-71
2021/12/15 14:41:15;;;;;;;14.02;7.78;;;;;;;;;;4859312;29;20362;-69
2021/12/15 14:43:41;;;;;;;16.17;8.63;;;;;;;;;;4858590;29;20064;-69
2021/12/15 14:46:20;;;;;;;37.25;17.48;;;;;;;;;;4860401;29;20417;-69
2021/12/15 14:48:55;;;;;;;18.60;10.30;;;;;;;;;;4862585;29;20378;-70
2021/12/15 14:51:22;;;;;;;18.02;10.00;;;;;;;;;;4861897;29;20033;-69
2021/12/15 14:53:48;;;;;;;27.75;9.13;;;;;;;;;;4862625;29;20099;-70
2021/12/15 14:56:14;;;;;;;25.58;9.73;;;;;;;;;;4862158;29;20120;-68
2021/12/15 14:58:40;;;;;;;22.65;10.68;;;;;;;;;;4861538;29;20105;-71
2021/12/15 15:01:06;;;;;;;20.52;11.02;;;;;;;;;;4862683;29;20045;-72
2021/12/15 15:03:35;;;;;;;23.25;10.88;;;;;;;;;;4860847;29;20404;-71
2021/12/15 15:06:02;;;;;;;24.50;10.95;;;;;;;;;;4862003;29;20076;-70
2021/12/15 15:08:32;;;;;;;13.60;8.75;;;;;;;;;;4861899;29;20109;-74
2021/12/15 15:11:01;;;;;;;18.73;9.73;;;;;;;;;;4861627;29;20042;-70
2021/12/15 15:13:27;;;;;;;15.77;9.32;;;;;;;;;;4861877;29;20098;-72
2021/12/15 15:16:01;;;;;;;13.23;7.97;;;;;;;;;;4862271;29;20117;-70
2021/12/15 15:18:31;;;;;;;;;;;;;;;;;;4862537;29;20197;-67
2021/12/15 15:21:04;;;;;;;14.65;8.90;;;;;;;;;;4861369;29;20360;-68
2021/12/15 15:23:36;;;;;;;11.65;6.78;;;;;;;;;;4861881;29;20149;-68
2021/12/15 15:26:04;;;;;;;17.98;7.93;;;;;;;;;;4861504;29;20041;-68
2021/12/15 15:28:33;;;;;;;17.40;7.82;;;;;;;;;;4861567;29;20037;-74
2021/12/15 15:31:04;;;;;;;13.05;7.82;;;;;;;;;;4861744;29;20033;-71
2021/12/15 15:33:34;;;;;;;14.68;7.93;;;;;;;;;;4860938;29;20493;-73
2021/12/15 15:36:10;;;;;;;13.20;8.32;;;;;;;;;;4860311;29;20033;-71
2021/12/15 15:38:41;;;;;;;13.25;8.90;;;;;;;;;;4861668;29;20129;-72
2021/12/15 15:41:15;;;;;;;12.73;7.70;;;;;;;;;;4861945;29;20033;-73
2021/12/15 15:44:00;;;;;;;14.57;7.80;;;;;;;;;;4861727;29;20038;-75
2021/12/15 15:46:31;;;;;;;14.05;7.85;;;;;;;;;;4861635;29;20046;-75
2021/12/15 15:48:59;;;;;;;13.95;8.02;;;;;;;;;;4861317;29;20033;-71
2021/12/15 15:51:33;;;;;;;16.48;9.43;;;;;;;;;;4862294;29;20045;-74
2021/12/15 15:54:03;;;;;;;18.95;7.78;;;;;;;;;;4863381;29;20042;-70
2021/12/15 15:56:31;;;;;;;13.98;8.88;;;;;;;;;;4860835;29;20077;-74
2021/12/15 15:59:05;;;;;;;13.02;8.40;;;;;;;;;;4862283;29;20035;-74
2021/12/15 16:01:35;;;;;;;13.20;8.52;;;;;;;;;;4862081;29;20393;-72
2021/12/15 16:04:04;;;;;;;12.98;8.13;;;;;;;;;;4861343;29;20189;-71
2021/12/15 16:06:31;;;;;;;15.55;9.30;;;;;;;;;;4860486;29;20098;-74
2021/12/15 16:09:00;;;;;;;11.95;6.90;;;;;;;;;;4861180;29;20046;-72
2021/12/15 16:11:29;;;;;;;16.13;9.20;;;;;;;;;;4859811;29;20056;-81
2021/12/15 16:14:03;;;;;;;19.10;9.90;;;;;;;;;;4861144;29;20037;-75
2021/12/15 16:17:40;;;;;;;15.15;9.40;;;;;;;;;;4861498;29;20049;-74
2021/12/15 16:19:37;;;;;;;12.38;7.43;;;;;;;;;;4852669;29;20053;-79
2021/12/15 16:25:15;;;;;;;12.98;8.23;;;;;;;;;;4861282;29;20489;-75
2021/12/15 16:27:47;;;;;;;13.23;7.80;;;;;;;;;;4861217;29;20041;-75
2021/12/15 16:30:15;;;;;;;11.35;6.70;;;;;;;;;;4861163;29;20043;-76
2021/12/15 16:32:44;;;;;;;15.10;8.65;;;;;;;;;;4859939;29;20492;-70
2021/12/15 16:35:19;;;;;;;16.92;7.75;;;;;;;;;;4860230;29;20041;-68
2021/12/15 16:37:45;;;;;;;12.90;6.53;;;;;;;;;;4860421;29;20044;-70